sensor_id;sensor_type;location;lat;lon;timestamp;temperature;humidity
24017;DHT22;12222;50.090;19.702;2022-11-15T00:00:15;4.10;99.90
24017;DHT22;12222;50.090;19.702;2022-11-15T00:05:35;4.00;99.90
24017;DHT22;12222;50.090;19.702;2022-11-15T00:11:00;4.00;99.90
24017;DHT22;12222;50.090;19.702;2022-11-15T00:16:21;3.90;99.90
24017;DHT22;12222;50.090;19.702;2022-11-15T00:21:42;3.80;99.90
24017;DHT22;12222;50.090;19.702;2022-11-15T00:27:02;3.80;99.90
24017;DHT22;12222;50.090;19.702;2022-11-15T00:32:30;3.80;99.90
24017;DHT22;12222;50.090;19.702;2022-11-15T00:37:52;3.70;99.90
24017;DHT22;12222;50.090;19.702;2022-11-15T00:43:12;3.80;99.90
24017;DHT22;12222;50.090;19.702;2022-11-15T00:48:33;3.80;99.90
24017;DHT22;12222;50.090;19.702;2022-11-15T00:53:53;3.80;99.90
24017;DHT22;12222;50.090;19.702;2022-11-15T00:59:13;3.70;99.90
24017;DHT22;12222;50.090;19.702;2022-11-15T01:04:34;3.70;99.90
24017;DHT22;12222;50.090;19.702;2022-11-15T01:09:54;3.80;99.90
24017;DHT22;12222;50.090;19.702;2022-11-15T01:15:14;3.70;99.90
24017;DHT22;12222;50.090;19.702;2022-11-15T01:20:42;3.60;99.90
24017;DHT22;12222;50.090;19.702;2022-11-15T01:26:05;3.70;99.90
24017;DHT22;12222;50.090;19.702;2022-11-15T01:31:26;3.60;99.90
24017;DHT22;12222;50.090;19.702;2022-11-15T01:36:46;3.50;99.90
24017;DHT22;12222;50.090;19.702;2022-11-15T01:42:13;3.60;99.90
24017;DHT22;12222;50.090;19.702;2022-11-15T01:47:37;3.50;99.90
24017;DHT22;12222;50.090;19.702;2022-11-15T01:52:59;3.50;99.90
24017;DHT22;12222;50.090;19.702;2022-11-15T01:58:19;3.40;99.90
24017;DHT22;12222;50.090;19.702;2022-11-15T02:03:54;3.60;99.90
24017;DHT22;12222;50.090;19.702;2022-11-15T02:09:16;3.40;99.90
24017;DHT22;12222;50.090;19.702;2022-11-15T02:14:39;3.30;99.90
24017;DHT22;12222;50.090;19.702;2022-11-15T02:26:25;3.10;99.90
24017;DHT22;12222;50.090;19.702;2022-11-15T02:37:44;3.40;99.90
24017;DHT22;12222;50.090;19.702;2022-11-15T02:43:10;3.40;99.90
24017;DHT22;12222;50.090;19.702;2022-11-15T02:48:49;3.50;99.90
24017;DHT22;12222;50.090;19.702;2022-11-15T02:54:14;3.30;99.90
24017;DHT22;12222;50.090;19.702;2022-11-15T02:59:48;3.10;99.90
24017;DHT22;12222;50.090;19.702;2022-11-15T03:05:25;3.00;99.90
24017;DHT22;12222;50.090;19.702;2022-11-15T03:21:40;3.30;99.90
24017;DHT22;12222;50.090;19.702;2022-11-15T03:27:02;3.30;99.90
24017;DHT22;12222;50.090;19.702;2022-11-15T03:32:28;3.20;99.90
24017;DHT22;12222;50.090;19.702;2022-11-15T03:38:22;3.30;99.90
24017;DHT22;12222;50.090;19.702;2022-11-15T03:43:59;3.40;99.90
24017;DHT22;12222;50.090;19.702;2022-11-15T03:49:35;3.30;99.90
24017;DHT22;12222;50.090;19.702;2022-11-15T03:54:57;3.20;99.90
24017;DHT22;12222;50.090;19.702;2022-11-15T04:00:20;3.30;99.90
24017;DHT22;12222;50.090;19.702;2022-11-15T04:05:41;3.40;99.90
24017;DHT22;12222;50.090;19.702;2022-11-15T04:11:01;3.30;99.90
24017;DHT22;12222;50.090;19.702;2022-11-15T04:16:21;3.20;99.90
24017;DHT22;12222;50.090;19.702;2022-11-15T04:21:42;3.20;99.90
24017;DHT22;12222;50.090;19.702;2022-11-15T04:27:21;3.40;99.90
24017;DHT22;12222;50.090;19.702;2022-11-15T04:32:41;3.20;99.90
24017;DHT22;12222;50.090;19.702;2022-11-15T04:38:02;3.10;99.90
24017;DHT22;12222;50.090;19.702;2022-11-15T04:43:23;3.30;99.90
24017;DHT22;12222;50.090;19.702;2022-11-15T04:48:43;3.10;99.90
24017;DHT22;12222;50.090;19.702;2022-11-15T04:54:04;3.10;99.90
24017;DHT22;12222;50.090;19.702;2022-11-15T04:59:24;3.00;99.90
24017;DHT22;12222;50.090;19.702;2022-11-15T05:04:44;3.00;99.90
24017;DHT22;12222;50.090;19.702;2022-11-15T05:10:05;2.90;99.90
24017;DHT22;12222;50.090;19.702;2022-11-15T05:15:26;2.90;99.90
24017;DHT22;12222;50.090;19.702;2022-11-15T05:20:46;2.90;99.90
24017;DHT22;12222;50.090;19.702;2022-11-15T05:26:10;2.80;99.90
24017;DHT22;12222;50.090;19.702;2022-11-15T05:31:30;2.70;99.90
24017;DHT22;12222;50.090;19.702;2022-11-15T05:36:51;2.70;99.90
24017;DHT22;12222;50.090;19.702;2022-11-15T05:42:14;2.50;99.90
24017;DHT22;12222;50.090;19.702;2022-11-15T05:47:36;2.50;99.90
24017;DHT22;12222;50.090;19.702;2022-11-15T05:52:58;2.30;99.90
24017;DHT22;12222;50.090;19.702;2022-11-15T05:58:24;2.30;99.90
24017;DHT22;12222;50.090;19.702;2022-11-15T06:03:44;2.30;99.90
24017;DHT22;12222;50.090;19.702;2022-11-15T06:09:04;2.30;99.90
24017;DHT22;12222;50.090;19.702;2022-11-15T06:14:25;2.30;99.90
24017;DHT22;12222;50.090;19.702;2022-11-15T06:19:45;2.30;99.90
24017;DHT22;12222;50.090;19.702;2022-11-15T06:25:06;2.30;99.90
24017;DHT22;12222;50.090;19.702;2022-11-15T06:30:27;2.30;99.90
24017;DHT22;12222;50.090;19.702;2022-11-15T06:35:47;2.50;99.90
24017;DHT22;12222;50.090;19.702;2022-11-15T06:41:09;2.30;99.90
24017;DHT22;12222;50.090;19.702;2022-11-15T06:46:30;2.30;99.90
24017;DHT22;12222;50.090;19.702;2022-11-15T06:51:50;2.20;99.90
24017;DHT22;12222;50.090;19.702;2022-11-15T06:57:11;2.40;99.90
24017;DHT22;12222;50.090;19.702;2022-11-15T07:02:32;2.50;99.90
24017;DHT22;12222;50.090;19.702;2022-11-15T07:07:53;2.40;99.90
24017;DHT22;12222;50.090;19.702;2022-11-15T07:13:14;2.60;99.90
24017;DHT22;12222;50.090;19.702;2022-11-15T07:18:35;2.60;99.90
24017;DHT22;12222;50.090;19.702;2022-11-15T07:23:56;2.80;99.90
24017;DHT22;12222;50.090;19.702;2022-11-15T07:29:16;2.90;99.90
24017;DHT22;12222;50.090;19.702;2022-11-15T07:34:37;2.80;99.90
24017;DHT22;12222;50.090;19.702;2022-11-15T07:40:01;2.80;99.90
24017;DHT22;12222;50.090;19.702;2022-11-15T07:45:23;2.80;99.90
24017;DHT22;12222;50.090;19.702;2022-11-15T07:50:46;2.80;99.90
24017;DHT22;12222;50.090;19.702;2022-11-15T07:56:09;3.60;99.90
24017;DHT22;12222;50.090;19.702;2022-11-15T08:01:29;3.50;99.90
24017;DHT22;12222;50.090;19.702;2022-11-15T08:06:50;3.90;99.90
24017;DHT22;12222;50.090;19.702;2022-11-15T08:12:10;4.10;99.90
24017;DHT22;12222;50.090;19.702;2022-11-15T08:17:31;4.60;99.90
24017;DHT22;12222;50.090;19.702;2022-11-15T08:22:53;4.80;99.90
24017;DHT22;12222;50.090;19.702;2022-11-15T08:28:15;5.10;99.90
24017;DHT22;12222;50.090;19.702;2022-11-15T08:33:36;5.70;99.90
24017;DHT22;12222;50.090;19.702;2022-11-15T08:38:57;6.20;99.90
24017;DHT22;12222;50.090;19.702;2022-11-15T08:44:17;5.80;99.90
24017;DHT22;12222;50.090;19.702;2022-11-15T08:49:37;5.90;99.90
24017;DHT22;12222;50.090;19.702;2022-11-15T08:54:57;6.40;99.90
24017;DHT22;12222;50.090;19.702;2022-11-15T09:00:18;6.50;99.90
24017;DHT22;12222;50.090;19.702;2022-11-15T09:05:40;7.00;99.90
24017;DHT22;12222;50.090;19.702;2022-11-15T09:11:08;7.40;99.90
24017;DHT22;12222;50.090;19.702;2022-11-15T09:16:31;8.00;99.90
24017;DHT22;12222;50.090;19.702;2022-11-15T09:21:51;8.80;99.90
24017;DHT22;12222;50.090;19.702;2022-11-15T09:27:11;9.00;99.90
24017;DHT22;12222;50.090;19.702;2022-11-15T09:32:33;9.20;99.90
24017;DHT22;12222;50.090;19.702;2022-11-15T09:37:58;9.70;99.90
24017;DHT22;12222;50.090;19.702;2022-11-15T09:43:33;10.50;99.90
24017;DHT22;12222;50.090;19.702;2022-11-15T09:48:59;10.70;99.90
24017;DHT22;12222;50.090;19.702;2022-11-15T09:54:32;11.70;99.90
24017;DHT22;12222;50.090;19.702;2022-11-15T10:05:47;12.60;99.90
24017;DHT22;12222;50.090;19.702;2022-11-15T10:10:59;12.50;99.90
24017;DHT22;12222;50.090;19.702;2022-11-15T10:16:42;12.70;99.90
24017;DHT22;12222;50.090;19.702;2022-11-15T10:26:58;13.50;99.90
24017;DHT22;12222;50.090;19.702;2022-11-15T10:32:00;13.70;99.90
24017;DHT22;12222;50.090;19.702;2022-11-15T10:37:02;13.50;99.90
24017;DHT22;12222;50.090;19.702;2022-11-15T10:42:27;12.70;99.90
24017;DHT22;12222;50.090;19.702;2022-11-15T10:47:31;11.20;99.90
24017;DHT22;12222;50.090;19.702;2022-11-15T10:52:45;10.30;99.90
24017;DHT22;12222;50.090;19.702;2022-11-15T10:57:57;10.50;99.90
24017;DHT22;12222;50.090;19.702;2022-11-15T11:03:08;10.70;99.90
24017;DHT22;12222;50.090;19.702;2022-11-15T11:08:24;10.60;99.90
24017;DHT22;12222;50.090;19.702;2022-11-15T11:13:28;10.80;99.90
24017;DHT22;12222;50.090;19.702;2022-11-15T11:23:59;11.30;99.90
24017;DHT22;12222;50.090;19.702;2022-11-15T11:50:21;14.30;99.90
24017;DHT22;12222;50.090;19.702;2022-11-15T11:55:26;13.10;99.90
24017;DHT22;12222;50.090;19.702;2022-11-15T12:00:33;11.60;99.90
24017;DHT22;12222;50.090;19.702;2022-11-15T12:05:43;10.90;99.90
24017;DHT22;12222;50.090;19.702;2022-11-15T12:10:50;11.00;99.90
24017;DHT22;12222;50.090;19.702;2022-11-15T12:16:26;11.30;99.90
24017;DHT22;12222;50.090;19.702;2022-11-15T12:22:02;10.90;99.90
24017;DHT22;12222;50.090;19.702;2022-11-15T12:27:15;10.60;99.90
24017;DHT22;12222;50.090;19.702;2022-11-15T12:32:29;10.70;99.90
24017;DHT22;12222;50.090;19.702;2022-11-15T12:42:57;10.50;99.90
24017;DHT22;12222;50.090;19.702;2022-11-15T13:19:41;10.10;99.90
24017;DHT22;12222;50.090;19.702;2022-11-15T13:24:42;10.20;99.90
24017;DHT22;12222;50.090;19.702;2022-11-15T13:29:44;10.40;99.90
24017;DHT22;12222;50.090;19.702;2022-11-15T13:34:48;10.50;99.90
24017;DHT22;12222;50.090;19.702;2022-11-15T13:39:53;10.60;99.90
24017;DHT22;12222;50.090;19.702;2022-11-15T13:44:57;10.60;99.90
24017;DHT22;12222;50.090;19.702;2022-11-15T13:49:59;10.90;99.90
24017;DHT22;12222;50.090;19.702;2022-11-15T13:55:18;10.90;99.90
24017;DHT22;12222;50.090;19.702;2022-11-15T14:00:38;10.70;99.90
24017;DHT22;12222;50.090;19.702;2022-11-15T14:05:41;10.30;99.90
24017;DHT22;12222;50.090;19.702;2022-11-15T14:10:44;10.10;99.90
24017;DHT22;12222;50.090;19.702;2022-11-15T14:15:47;10.10;99.90
24017;DHT22;12222;50.090;19.702;2022-11-15T14:21:05;10.10;99.90
24017;DHT22;12222;50.090;19.702;2022-11-15T14:26:31;9.70;99.90
24017;DHT22;12222;50.090;19.702;2022-11-15T14:31:34;9.50;99.90
24017;DHT22;12222;50.090;19.702;2022-11-15T14:36:44;9.50;99.90
24017;DHT22;12222;50.090;19.702;2022-11-15T14:41:48;9.60;99.90
24017;DHT22;12222;50.090;19.702;2022-11-15T14:46:50;9.40;99.90
24017;DHT22;12222;50.090;19.702;2022-11-15T14:51:53;9.20;99.90
24017;DHT22;12222;50.090;19.702;2022-11-15T14:56:57;9.10;99.90
24017;DHT22;12222;50.090;19.702;2022-11-15T15:01:59;9.30;99.90
24017;DHT22;12222;50.090;19.702;2022-11-15T15:07:03;9.10;99.90
24017;DHT22;12222;50.090;19.702;2022-11-15T15:12:17;8.80;99.90
24017;DHT22;12222;50.090;19.702;2022-11-15T15:17:23;8.60;99.90
24017;DHT22;12222;50.090;19.702;2022-11-15T15:22:29;8.50;99.90
24017;DHT22;12222;50.090;19.702;2022-11-15T15:27:33;8.30;99.90
24017;DHT22;12222;50.090;19.702;2022-11-15T15:32:39;8.20;99.90
24017;DHT22;12222;50.090;19.702;2022-11-15T15:37:46;8.10;99.90
24017;DHT22;12222;50.090;19.702;2022-11-15T15:42:50;8.00;99.90
24017;DHT22;12222;50.090;19.702;2022-11-15T15:47:54;8.00;99.90
24017;DHT22;12222;50.090;19.702;2022-11-15T15:52:58;7.90;99.90
24017;DHT22;12222;50.090;19.702;2022-11-15T15:58:04;7.80;99.90
24017;DHT22;12222;50.090;19.702;2022-11-15T16:03:18;7.90;99.90
24017;DHT22;12222;50.090;19.702;2022-11-15T16:08:28;7.90;99.90
24017;DHT22;12222;50.090;19.702;2022-11-15T16:13:48;7.90;99.90
24017;DHT22;12222;50.090;19.702;2022-11-15T16:18:58;7.90;99.90
24017;DHT22;12222;50.090;19.702;2022-11-15T16:24:03;7.80;99.90
24017;DHT22;12222;50.090;19.702;2022-11-15T16:29:08;7.80;99.90
24017;DHT22;12222;50.090;19.702;2022-11-15T16:34:15;7.90;99.90
24017;DHT22;12222;50.090;19.702;2022-11-15T16:39:18;8.20;99.90
24017;DHT22;12222;50.090;19.702;2022-11-15T16:44:22;8.10;99.90
24017;DHT22;12222;50.090;19.702;2022-11-15T16:49:26;8.00;99.90
24017;DHT22;12222;50.090;19.702;2022-11-15T16:54:33;8.00;99.90
24017;DHT22;12222;50.090;19.702;2022-11-15T16:59:36;7.90;99.90
24017;DHT22;12222;50.090;19.702;2022-11-15T17:04:39;8.10;99.90
24017;DHT22;12222;50.090;19.702;2022-11-15T17:09:42;8.30;99.90
24017;DHT22;12222;50.090;19.702;2022-11-15T17:14:45;8.30;99.90
24017;DHT22;12222;50.090;19.702;2022-11-15T17:19:48;8.10;99.90
24017;DHT22;12222;50.090;19.702;2022-11-15T17:24:51;8.20;99.90
24017;DHT22;12222;50.090;19.702;2022-11-15T17:29:54;8.10;99.90
24017;DHT22;12222;50.090;19.702;2022-11-15T17:34:57;8.30;99.90
24017;DHT22;12222;50.090;19.702;2022-11-15T17:40:00;8.10;99.90
24017;DHT22;12222;50.090;19.702;2022-11-15T17:45:03;8.00;99.90
24017;DHT22;12222;50.090;19.702;2022-11-15T17:50:11;8.20;99.90
24017;DHT22;12222;50.090;19.702;2022-11-15T17:55:13;8.30;99.90
24017;DHT22;12222;50.090;19.702;2022-11-15T18:00:16;8.30;99.90
24017;DHT22;12222;50.090;19.702;2022-11-15T18:05:22;8.20;99.90
24017;DHT22;12222;50.090;19.702;2022-11-15T18:10:24;8.30;99.90
24017;DHT22;12222;50.090;19.702;2022-11-15T18:15:27;8.20;99.90
24017;DHT22;12222;50.090;19.702;2022-11-15T18:20:31;8.10;99.90
24017;DHT22;12222;50.090;19.702;2022-11-15T18:25:34;7.70;99.90
24017;DHT22;12222;50.090;19.702;2022-11-15T18:30:37;7.70;99.90
24017;DHT22;12222;50.090;19.702;2022-11-15T18:35:46;7.70;99.90
24017;DHT22;12222;50.090;19.702;2022-11-15T18:40:50;7.60;99.90
24017;DHT22;12222;50.090;19.702;2022-11-15T18:45:53;7.80;99.90
24017;DHT22;12222;50.090;19.702;2022-11-15T18:51:00;7.90;99.90
24017;DHT22;12222;50.090;19.702;2022-11-15T18:56:09;7.80;99.90
24017;DHT22;12222;50.090;19.702;2022-11-15T19:01:14;7.90;99.90
24017;DHT22;12222;50.090;19.702;2022-11-15T19:06:26;7.90;99.90
24017;DHT22;12222;50.090;19.702;2022-11-15T19:11:32;7.90;99.90
24017;DHT22;12222;50.090;19.702;2022-11-15T19:16:39;7.90;99.90
24017;DHT22;12222;50.090;19.702;2022-11-15T19:21:43;7.90;99.90
24017;DHT22;12222;50.090;19.702;2022-11-15T19:27:01;7.90;99.90
24017;DHT22;12222;50.090;19.702;2022-11-15T19:32:05;7.60;99.90
24017;DHT22;12222;50.090;19.702;2022-11-15T19:37:09;7.50;99.90
24017;DHT22;12222;50.090;19.702;2022-11-15T19:42:40;7.60;99.90
24017;DHT22;12222;50.090;19.702;2022-11-15T19:47:44;7.60;99.90
24017;DHT22;12222;50.090;19.702;2022-11-15T19:53:04;7.50;99.90
24017;DHT22;12222;50.090;19.702;2022-11-15T19:58:17;7.70;99.90
24017;DHT22;12222;50.090;19.702;2022-11-15T20:03:22;7.80;99.90
24017;DHT22;12222;50.090;19.702;2022-11-15T20:08:45;7.80;99.90
24017;DHT22;12222;50.090;19.702;2022-11-15T20:13:50;7.50;99.90
24017;DHT22;12222;50.090;19.702;2022-11-15T20:19:06;7.60;99.90
24017;DHT22;12222;50.090;19.702;2022-11-15T20:24:35;7.60;99.90
24017;DHT22;12222;50.090;19.702;2022-11-15T20:29:40;7.80;99.90
24017;DHT22;12222;50.090;19.702;2022-11-15T20:34:46;7.80;99.90
24017;DHT22;12222;50.090;19.702;2022-11-15T20:39:55;7.70;99.90
24017;DHT22;12222;50.090;19.702;2022-11-15T20:44:59;7.80;99.90
24017;DHT22;12222;50.090;19.702;2022-11-15T20:50:06;7.80;99.90
24017;DHT22;12222;50.090;19.702;2022-11-15T20:55:29;7.60;99.90
24017;DHT22;12222;50.090;19.702;2022-11-15T21:00:33;7.60;99.90
24017;DHT22;12222;50.090;19.702;2022-11-15T21:05:42;7.80;99.90
24017;DHT22;12222;50.090;19.702;2022-11-15T21:10:49;7.90;99.90
24017;DHT22;12222;50.090;19.702;2022-11-15T21:16:11;7.90;99.90
24017;DHT22;12222;50.090;19.702;2022-11-15T21:21:15;7.60;99.90
24017;DHT22;12222;50.090;19.702;2022-11-15T21:26:18;7.50;99.90
24017;DHT22;12222;50.090;19.702;2022-11-15T21:31:21;7.40;99.90
24017;DHT22;12222;50.090;19.702;2022-11-15T21:36:25;7.40;99.90
24017;DHT22;12222;50.090;19.702;2022-11-15T21:41:31;7.50;99.90
24017;DHT22;12222;50.090;19.702;2022-11-15T21:46:38;7.40;99.90
24017;DHT22;12222;50.090;19.702;2022-11-15T21:51:54;7.40;99.90
24017;DHT22;12222;50.090;19.702;2022-11-15T21:57:15;7.40;99.90
24017;DHT22;12222;50.090;19.702;2022-11-15T22:02:21;7.50;99.90
24017;DHT22;12222;50.090;19.702;2022-11-15T22:07:24;7.60;99.90
24017;DHT22;12222;50.090;19.702;2022-11-15T22:12:27;7.50;99.90
24017;DHT22;12222;50.090;19.702;2022-11-15T22:17:31;7.70;99.90
24017;DHT22;12222;50.090;19.702;2022-11-15T22:22:52;7.80;99.90
24017;DHT22;12222;50.090;19.702;2022-11-15T22:27:55;7.90;99.90
24017;DHT22;12222;50.090;19.702;2022-11-15T22:32:58;7.90;99.90
24017;DHT22;12222;50.090;19.702;2022-11-15T22:38:01;7.80;99.90
24017;DHT22;12222;50.090;19.702;2022-11-15T22:43:05;7.70;99.90
24017;DHT22;12222;50.090;19.702;2022-11-15T22:48:11;7.70;99.90
24017;DHT22;12222;50.090;19.702;2022-11-15T22:53:14;7.70;99.90
24017;DHT22;12222;50.090;19.702;2022-11-15T22:58:17;7.70;99.90
24017;DHT22;12222;50.090;19.702;2022-11-15T23:03:21;7.80;99.90
24017;DHT22;12222;50.090;19.702;2022-11-15T23:08:24;8.00;99.90
24017;DHT22;12222;50.090;19.702;2022-11-15T23:13:27;8.00;99.90
24017;DHT22;12222;50.090;19.702;2022-11-15T23:18:34;7.90;99.90
24017;DHT22;12222;50.090;19.702;2022-11-15T23:23:37;7.90;99.90
24017;DHT22;12222;50.090;19.702;2022-11-15T23:28:39;7.90;99.90
24017;DHT22;12222;50.090;19.702;2022-11-15T23:33:41;7.80;99.90
24017;DHT22;12222;50.090;19.702;2022-11-15T23:38:58;7.80;99.90
24017;DHT22;12222;50.090;19.702;2022-11-15T23:44:00;7.70;99.90
24017;DHT22;12222;50.090;19.702;2022-11-15T23:49:02;7.60;99.90
24017;DHT22;12222;50.090;19.702;2022-11-15T23:54:04;7.50;99.90
24017;DHT22;12222;50.090;19.702;2022-11-15T23:59:06;7.50;99.90
